sensor_id;sensor_type;location;lat;lon;timestamp;P1;durP1;ratioP1;P2;durP2;ratioP2
7831;SDS011;3961;42.058;25.586;2022-10-15T00:02:12;8.00;;;2.90;;
7831;SDS011;3961;42.058;25.586;2022-10-15T00:04:37;6.43;;;3.10;;
7831;SDS011;3961;42.058;25.586;2022-10-15T00:07:03;6.87;;;3.20;;
7831;SDS011;3961;42.058;25.586;2022-10-15T00:09:28;7.40;;;2.97;;
7831;SDS011;3961;42.058;25.586;2022-10-15T00:11:54;5.60;;;3.33;;
7831;SDS011;3961;42.058;25.586;2022-10-15T00:14:19;6.13;;;3.00;;
7831;SDS011;3961;42.058;25.586;2022-10-15T00:16:45;5.07;;;3.20;;
7831;SDS011;3961;42.058;25.586;2022-10-15T00:19:10;14.43;;;3.40;;
7831;SDS011;3961;42.058;25.586;2022-10-15T00:21:36;6.43;;;2.97;;
7831;SDS011;3961;42.058;25.586;2022-10-15T00:24:02;5.67;;;3.47;;
7831;SDS011;3961;42.058;25.586;2022-10-15T00:26:29;8.43;;;3.60;;
7831;SDS011;3961;42.058;25.586;2022-10-15T00:28:55;5.70;;;2.90;;
7831;SDS011;3961;42.058;25.586;2022-10-15T00:31:23;5.17;;;2.70;;
7831;SDS011;3961;42.058;25.586;2022-10-15T00:33:50;5.87;;;3.10;;
7831;SDS011;3961;42.058;25.586;2022-10-15T00:36:17;6.20;;;2.63;;
7831;SDS011;3961;42.058;25.586;2022-10-15T00:38:44;9.37;;;3.20;;
7831;SDS011;3961;42.058;25.586;2022-10-15T00:41:20;6.67;;;3.03;;
7831;SDS011;3961;42.058;25.586;2022-10-15T00:43:48;6.40;;;2.83;;
7831;SDS011;3961;42.058;25.586;2022-10-15T00:46:22;5.90;;;3.20;;
7831;SDS011;3961;42.058;25.586;2022-10-15T00:49:01;5.57;;;2.60;;
7831;SDS011;3961;42.058;25.586;2022-10-15T00:51:43;4.47;;;2.60;;
7831;SDS011;3961;42.058;25.586;2022-10-15T00:54:12;5.80;;;3.10;;
7831;SDS011;3961;42.058;25.586;2022-10-15T00:56:39;9.07;;;3.30;;
7831;SDS011;3961;42.058;25.586;2022-10-15T00:59:07;3.90;;;2.67;;
7831;SDS011;3961;42.058;25.586;2022-10-15T01:01:33;4.33;;;2.83;;
7831;SDS011;3961;42.058;25.586;2022-10-15T01:03:59;5.70;;;3.00;;
7831;SDS011;3961;42.058;25.586;2022-10-15T01:06:26;3.97;;;2.80;;
7831;SDS011;3961;42.058;25.586;2022-10-15T01:08:53;5.30;;;2.67;;
7831;SDS011;3961;42.058;25.586;2022-10-15T01:14:09;5.40;;;2.53;;
7831;SDS011;3961;42.058;25.586;2022-10-15T01:16:48;6.23;;;3.07;;
7831;SDS011;3961;42.058;25.586;2022-10-15T01:19:27;5.67;;;2.77;;
7831;SDS011;3961;42.058;25.586;2022-10-15T01:22:12;7.10;;;3.40;;
7831;SDS011;3961;42.058;25.586;2022-10-15T01:24:50;8.50;;;3.87;;
7831;SDS011;3961;42.058;25.586;2022-10-15T01:27:28;8.43;;;4.73;;
7831;SDS011;3961;42.058;25.586;2022-10-15T01:32:52;8.10;;;5.07;;
7831;SDS011;3961;42.058;25.586;2022-10-15T01:40:49;11.17;;;5.20;;
7831;SDS011;3961;42.058;25.586;2022-10-15T01:43:21;18.53;;;4.50;;
7831;SDS011;3961;42.058;25.586;2022-10-15T01:45:54;7.70;;;4.60;;
7831;SDS011;3961;42.058;25.586;2022-10-15T01:48:25;8.70;;;4.07;;
7831;SDS011;3961;42.058;25.586;2022-10-15T01:50:53;8.80;;;4.00;;
7831;SDS011;3961;42.058;25.586;2022-10-15T01:53:22;12.20;;;4.77;;
7831;SDS011;3961;42.058;25.586;2022-10-15T01:55:55;6.20;;;3.50;;
7831;SDS011;3961;42.058;25.586;2022-10-15T01:58:24;6.77;;;3.97;;
7831;SDS011;3961;42.058;25.586;2022-10-15T02:00:52;7.60;;;3.50;;
7831;SDS011;3961;42.058;25.586;2022-10-15T02:03:21;7.97;;;3.80;;
7831;SDS011;3961;42.058;25.586;2022-10-15T02:05:47;4.93;;;3.10;;
7831;SDS011;3961;42.058;25.586;2022-10-15T02:08:38;8.50;;;4.37;;
7831;SDS011;3961;42.058;25.586;2022-10-15T02:11:08;12.23;;;4.60;;
7831;SDS011;3961;42.058;25.586;2022-10-15T02:13:49;10.77;;;4.20;;
7831;SDS011;3961;42.058;25.586;2022-10-15T02:16:28;9.67;;;4.23;;
7831;SDS011;3961;42.058;25.586;2022-10-15T02:19:05;6.50;;;3.90;;
7831;SDS011;3961;42.058;25.586;2022-10-15T02:21:43;8.07;;;4.40;;
7831;SDS011;3961;42.058;25.586;2022-10-15T02:24:17;7.73;;;4.00;;
7831;SDS011;3961;42.058;25.586;2022-10-15T02:26:46;6.43;;;4.17;;
7831;SDS011;3961;42.058;25.586;2022-10-15T02:29:16;7.70;;;3.87;;
7831;SDS011;3961;42.058;25.586;2022-10-15T02:31:45;15.67;;;4.90;;
7831;SDS011;3961;42.058;25.586;2022-10-15T02:34:15;6.97;;;3.90;;
7831;SDS011;3961;42.058;25.586;2022-10-15T02:36:44;16.77;;;4.77;;
7831;SDS011;3961;42.058;25.586;2022-10-15T02:39:11;7.50;;;4.07;;
7831;SDS011;3961;42.058;25.586;2022-10-15T02:41:41;6.47;;;4.30;;
7831;SDS011;3961;42.058;25.586;2022-10-15T02:44:07;8.10;;;4.43;;
7831;SDS011;3961;42.058;25.586;2022-10-15T02:46:33;8.23;;;4.27;;
7831;SDS011;3961;42.058;25.586;2022-10-15T02:48:59;8.80;;;4.47;;
7831;SDS011;3961;42.058;25.586;2022-10-15T02:51:24;9.07;;;4.17;;
7831;SDS011;3961;42.058;25.586;2022-10-15T02:53:50;8.40;;;4.33;;
7831;SDS011;3961;42.058;25.586;2022-10-15T02:56:15;8.27;;;5.10;;
7831;SDS011;3961;42.058;25.586;2022-10-15T02:58:41;9.40;;;4.70;;
7831;SDS011;3961;42.058;25.586;2022-10-15T03:01:06;8.33;;;4.50;;
7831;SDS011;3961;42.058;25.586;2022-10-15T03:03:32;14.17;;;4.73;;
7831;SDS011;3961;42.058;25.586;2022-10-15T03:05:58;9.20;;;4.10;;
7831;SDS011;3961;42.058;25.586;2022-10-15T03:08:23;7.00;;;4.43;;
7831;SDS011;3961;42.058;25.586;2022-10-15T03:10:49;10.33;;;4.63;;
7831;SDS011;3961;42.058;25.586;2022-10-15T03:13:14;9.00;;;4.17;;
7831;SDS011;3961;42.058;25.586;2022-10-15T03:15:40;9.13;;;4.00;;
7831;SDS011;3961;42.058;25.586;2022-10-15T03:18:06;12.23;;;4.23;;
7831;SDS011;3961;42.058;25.586;2022-10-15T03:20:32;7.60;;;4.70;;
7831;SDS011;3961;42.058;25.586;2022-10-15T03:22:57;7.67;;;4.43;;
7831;SDS011;3961;42.058;25.586;2022-10-15T03:25:23;8.70;;;4.47;;
7831;SDS011;3961;42.058;25.586;2022-10-15T03:27:48;8.00;;;4.03;;
7831;SDS011;3961;42.058;25.586;2022-10-15T03:30:17;9.60;;;4.03;;
7831;SDS011;3961;42.058;25.586;2022-10-15T03:32:43;8.50;;;3.87;;
7831;SDS011;3961;42.058;25.586;2022-10-15T03:35:08;6.87;;;4.20;;
7831;SDS011;3961;42.058;25.586;2022-10-15T03:37:34;11.03;;;4.43;;
7831;SDS011;3961;42.058;25.586;2022-10-15T03:40:00;16.93;;;5.87;;
7831;SDS011;3961;42.058;25.586;2022-10-15T03:42:25;7.30;;;4.67;;
7831;SDS011;3961;42.058;25.586;2022-10-15T03:44:51;11.17;;;4.53;;
7831;SDS011;3961;42.058;25.586;2022-10-15T03:47:16;7.80;;;4.60;;
7831;SDS011;3961;42.058;25.586;2022-10-15T03:49:42;9.97;;;5.10;;
7831;SDS011;3961;42.058;25.586;2022-10-15T03:52:07;9.13;;;5.80;;
7831;SDS011;3961;42.058;25.586;2022-10-15T03:54:33;10.57;;;6.50;;
7831;SDS011;3961;42.058;25.586;2022-10-15T03:56:58;13.13;;;5.90;;
7831;SDS011;3961;42.058;25.586;2022-10-15T03:59:24;14.33;;;6.77;;
7831;SDS011;3961;42.058;25.586;2022-10-15T04:01:49;12.03;;;5.87;;
7831;SDS011;3961;42.058;25.586;2022-10-15T04:04:15;14.03;;;7.03;;
7831;SDS011;3961;42.058;25.586;2022-10-15T04:06:40;23.93;;;11.13;;
7831;SDS011;3961;42.058;25.586;2022-10-15T04:09:06;22.73;;;10.20;;
7831;SDS011;3961;42.058;25.586;2022-10-15T04:11:31;11.73;;;6.13;;
7831;SDS011;3961;42.058;25.586;2022-10-15T04:13:57;14.60;;;9.53;;
7831;SDS011;3961;42.058;25.586;2022-10-15T04:16:22;18.93;;;9.60;;
7831;SDS011;3961;42.058;25.586;2022-10-15T04:18:48;14.20;;;7.20;;
7831;SDS011;3961;42.058;25.586;2022-10-15T04:21:13;16.80;;;7.93;;
7831;SDS011;3961;42.058;25.586;2022-10-15T04:23:39;11.97;;;7.07;;
7831;SDS011;3961;42.058;25.586;2022-10-15T04:26:05;13.27;;;6.93;;
7831;SDS011;3961;42.058;25.586;2022-10-15T04:28:31;9.53;;;6.17;;
7831;SDS011;3961;42.058;25.586;2022-10-15T04:30:58;11.03;;;6.50;;
7831;SDS011;3961;42.058;25.586;2022-10-15T04:33:24;7.80;;;5.50;;
7831;SDS011;3961;42.058;25.586;2022-10-15T04:36:23;11.27;;;6.67;;
7831;SDS011;3961;42.058;25.586;2022-10-15T04:38:42;12.40;;;6.67;;
7831;SDS011;3961;42.058;25.586;2022-10-15T04:41:09;12.13;;;7.40;;
7831;SDS011;3961;42.058;25.586;2022-10-15T04:43:36;11.53;;;6.67;;
7831;SDS011;3961;42.058;25.586;2022-10-15T04:46:03;9.37;;;6.13;;
7831;SDS011;3961;42.058;25.586;2022-10-15T04:48:31;11.33;;;7.03;;
7831;SDS011;3961;42.058;25.586;2022-10-15T04:51:02;16.17;;;7.30;;
7831;SDS011;3961;42.058;25.586;2022-10-15T04:53:32;11.37;;;7.40;;
7831;SDS011;3961;42.058;25.586;2022-10-15T04:56:01;9.13;;;6.50;;
7831;SDS011;3961;42.058;25.586;2022-10-15T04:58:29;9.93;;;7.03;;
7831;SDS011;3961;42.058;25.586;2022-10-15T05:00:58;10.30;;;7.17;;
7831;SDS011;3961;42.058;25.586;2022-10-15T05:03:25;13.10;;;7.73;;
7831;SDS011;3961;42.058;25.586;2022-10-15T05:05:51;13.20;;;7.13;;
7831;SDS011;3961;42.058;25.586;2022-10-15T05:08:16;11.50;;;7.37;;
7831;SDS011;3961;42.058;25.586;2022-10-15T05:10:42;15.50;;;7.03;;
7831;SDS011;3961;42.058;25.586;2022-10-15T05:13:07;11.83;;;7.13;;
7831;SDS011;3961;42.058;25.586;2022-10-15T05:15:33;10.27;;;7.40;;
7831;SDS011;3961;42.058;25.586;2022-10-15T05:17:58;18.43;;;7.63;;
7831;SDS011;3961;42.058;25.586;2022-10-15T05:20:24;15.73;;;7.70;;
7831;SDS011;3961;42.058;25.586;2022-10-15T05:22:49;13.27;;;7.53;;
7831;SDS011;3961;42.058;25.586;2022-10-15T05:25:15;10.40;;;7.30;;
7831;SDS011;3961;42.058;25.586;2022-10-15T05:27:40;12.50;;;7.27;;
7831;SDS011;3961;42.058;25.586;2022-10-15T05:30:06;13.40;;;7.13;;
7831;SDS011;3961;42.058;25.586;2022-10-15T05:32:32;12.87;;;7.30;;
7831;SDS011;3961;42.058;25.586;2022-10-15T05:34:57;14.43;;;8.77;;
7831;SDS011;3961;42.058;25.586;2022-10-15T05:37:23;13.47;;;8.00;;
7831;SDS011;3961;42.058;25.586;2022-10-15T05:39:48;12.07;;;8.33;;
7831;SDS011;3961;42.058;25.586;2022-10-15T05:42:14;10.63;;;7.70;;
7831;SDS011;3961;42.058;25.586;2022-10-15T05:44:39;10.40;;;8.23;;
7831;SDS011;3961;42.058;25.586;2022-10-15T05:47:05;11.67;;;8.23;;
7831;SDS011;3961;42.058;25.586;2022-10-15T05:49:35;13.33;;;8.70;;
7831;SDS011;3961;42.058;25.586;2022-10-15T05:52:01;13.90;;;9.23;;
7831;SDS011;3961;42.058;25.586;2022-10-15T05:54:26;12.10;;;8.80;;
7831;SDS011;3961;42.058;25.586;2022-10-15T05:56:52;17.23;;;8.57;;
7831;SDS011;3961;42.058;25.586;2022-10-15T05:59:17;16.63;;;8.43;;
7831;SDS011;3961;42.058;25.586;2022-10-15T06:01:43;13.70;;;9.37;;
7831;SDS011;3961;42.058;25.586;2022-10-15T06:04:08;15.83;;;9.33;;
7831;SDS011;3961;42.058;25.586;2022-10-15T06:06:34;14.73;;;9.93;;
7831;SDS011;3961;42.058;25.586;2022-10-15T06:09:00;17.17;;;8.73;;
7831;SDS011;3961;42.058;25.586;2022-10-15T06:11:25;16.43;;;9.03;;
7831;SDS011;3961;42.058;25.586;2022-10-15T06:13:51;17.73;;;8.97;;
7831;SDS011;3961;42.058;25.586;2022-10-15T06:16:17;15.37;;;8.63;;
7831;SDS011;3961;42.058;25.586;2022-10-15T06:18:43;13.33;;;8.50;;
7831;SDS011;3961;42.058;25.586;2022-10-15T06:21:09;14.47;;;8.60;;
7831;SDS011;3961;42.058;25.586;2022-10-15T06:23:36;14.23;;;8.43;;
7831;SDS011;3961;42.058;25.586;2022-10-15T06:26:05;14.50;;;9.87;;
7831;SDS011;3961;42.058;25.586;2022-10-15T06:28:32;16.83;;;7.87;;
7831;SDS011;3961;42.058;25.586;2022-10-15T06:30:59;19.23;;;9.30;;
7831;SDS011;3961;42.058;25.586;2022-10-15T06:33:25;15.63;;;9.07;;
7831;SDS011;3961;42.058;25.586;2022-10-15T06:35:51;16.20;;;8.90;;
7831;SDS011;3961;42.058;25.586;2022-10-15T06:38:17;19.23;;;9.47;;
7831;SDS011;3961;42.058;25.586;2022-10-15T06:40:42;13.63;;;8.23;;
7831;SDS011;3961;42.058;25.586;2022-10-15T06:43:08;18.57;;;8.97;;
7831;SDS011;3961;42.058;25.586;2022-10-15T06:45:35;14.57;;;7.93;;
7831;SDS011;3961;42.058;25.586;2022-10-15T06:48:03;20.60;;;8.10;;
7831;SDS011;3961;42.058;25.586;2022-10-15T06:50:30;14.03;;;7.47;;
7831;SDS011;3961;42.058;25.586;2022-10-15T06:52:56;12.20;;;7.83;;
7831;SDS011;3961;42.058;25.586;2022-10-15T06:55:21;12.53;;;7.87;;
7831;SDS011;3961;42.058;25.586;2022-10-15T06:57:47;15.07;;;7.87;;
7831;SDS011;3961;42.058;25.586;2022-10-15T07:00:14;12.00;;;6.93;;
7831;SDS011;3961;42.058;25.586;2022-10-15T07:02:40;12.23;;;6.93;;
7831;SDS011;3961;42.058;25.586;2022-10-15T07:05:06;12.33;;;6.60;;
7831;SDS011;3961;42.058;25.586;2022-10-15T07:07:32;13.23;;;6.50;;
7831;SDS011;3961;42.058;25.586;2022-10-15T07:09:57;10.70;;;6.57;;
7831;SDS011;3961;42.058;25.586;2022-10-15T07:12:23;12.90;;;6.73;;
7831;SDS011;3961;42.058;25.586;2022-10-15T07:14:48;9.57;;;5.00;;
7831;SDS011;3961;42.058;25.586;2022-10-15T07:17:14;8.70;;;5.13;;
7831;SDS011;3961;42.058;25.586;2022-10-15T07:19:40;10.13;;;4.83;;
7831;SDS011;3961;42.058;25.586;2022-10-15T07:22:06;6.47;;;4.40;;
7831;SDS011;3961;42.058;25.586;2022-10-15T07:24:32;9.43;;;4.37;;
7831;SDS011;3961;42.058;25.586;2022-10-15T07:26:58;7.70;;;4.73;;
7831;SDS011;3961;42.058;25.586;2022-10-15T07:29:23;11.13;;;5.90;;
7831;SDS011;3961;42.058;25.586;2022-10-15T07:31:49;7.63;;;5.40;;
7831;SDS011;3961;42.058;25.586;2022-10-15T07:34:14;8.40;;;5.00;;
7831;SDS011;3961;42.058;25.586;2022-10-15T07:36:40;7.70;;;4.37;;
7831;SDS011;3961;42.058;25.586;2022-10-15T07:39:05;6.77;;;3.63;;
7831;SDS011;3961;42.058;25.586;2022-10-15T07:41:31;7.43;;;3.90;;
7831;SDS011;3961;42.058;25.586;2022-10-15T07:43:56;6.27;;;3.70;;
7831;SDS011;3961;42.058;25.586;2022-10-15T07:46:22;6.80;;;3.83;;
7831;SDS011;3961;42.058;25.586;2022-10-15T07:48:47;18.47;;;3.90;;
7831;SDS011;3961;42.058;25.586;2022-10-15T07:51:13;4.70;;;3.23;;
7831;SDS011;3961;42.058;25.586;2022-10-15T07:53:38;6.03;;;3.40;;
7831;SDS011;3961;42.058;25.586;2022-10-15T07:56:06;5.80;;;3.50;;
7831;SDS011;3961;42.058;25.586;2022-10-15T07:58:34;6.87;;;4.27;;
7831;SDS011;3961;42.058;25.586;2022-10-15T08:01:02;7.47;;;4.07;;
7831;SDS011;3961;42.058;25.586;2022-10-15T08:03:29;12.63;;;4.00;;
7831;SDS011;3961;42.058;25.586;2022-10-15T08:05:55;4.30;;;2.80;;
7831;SDS011;3961;42.058;25.586;2022-10-15T08:08:24;7.70;;;2.70;;
7831;SDS011;3961;42.058;25.586;2022-10-15T08:10:49;11.13;;;2.70;;
7831;SDS011;3961;42.058;25.586;2022-10-15T08:13:15;3.53;;;3.00;;
7831;SDS011;3961;42.058;25.586;2022-10-15T08:15:40;5.67;;;2.83;;
7831;SDS011;3961;42.058;25.586;2022-10-15T08:18:07;5.70;;;2.33;;
7831;SDS011;3961;42.058;25.586;2022-10-15T08:20:34;4.40;;;2.37;;
7831;SDS011;3961;42.058;25.586;2022-10-15T08:23:01;6.87;;;2.97;;
7831;SDS011;3961;42.058;25.586;2022-10-15T08:25:27;4.23;;;2.47;;
7831;SDS011;3961;42.058;25.586;2022-10-15T08:27:53;3.23;;;2.27;;
7831;SDS011;3961;42.058;25.586;2022-10-15T08:30:18;10.73;;;3.27;;
7831;SDS011;3961;42.058;25.586;2022-10-15T08:32:44;6.10;;;2.70;;
7831;SDS011;3961;42.058;25.586;2022-10-15T08:35:10;3.87;;;2.30;;
7831;SDS011;3961;42.058;25.586;2022-10-15T08:37:36;3.67;;;2.30;;
7831;SDS011;3961;42.058;25.586;2022-10-15T08:40:02;5.43;;;2.57;;
7831;SDS011;3961;42.058;25.586;2022-10-15T08:42:36;5.80;;;2.17;;
7831;SDS011;3961;42.058;25.586;2022-10-15T08:45:06;3.33;;;2.30;;
7831;SDS011;3961;42.058;25.586;2022-10-15T08:47:57;3.77;;;2.80;;
7831;SDS011;3961;42.058;25.586;2022-10-15T08:50:48;3.97;;;2.40;;
7831;SDS011;3961;42.058;25.586;2022-10-15T08:53:21;5.27;;;2.93;;
7831;SDS011;3961;42.058;25.586;2022-10-15T08:55:49;5.30;;;2.80;;
7831;SDS011;3961;42.058;25.586;2022-10-15T08:58:19;8.00;;;2.57;;
7831;SDS011;3961;42.058;25.586;2022-10-15T09:01:12;5.33;;;2.70;;
7831;SDS011;3961;42.058;25.586;2022-10-15T09:06:32;2.90;;;2.20;;
7831;SDS011;3961;42.058;25.586;2022-10-15T09:14:29;3.53;;;2.40;;
7831;SDS011;3961;42.058;25.586;2022-10-15T09:16:58;6.77;;;2.60;;
7831;SDS011;3961;42.058;25.586;2022-10-15T09:19:28;4.93;;;2.63;;
7831;SDS011;3961;42.058;25.586;2022-10-15T09:21:54;3.73;;;2.27;;
7831;SDS011;3961;42.058;25.586;2022-10-15T09:24:21;6.43;;;2.20;;
7831;SDS011;3961;42.058;25.586;2022-10-15T09:34:23;10.63;;;2.63;;
7831;SDS011;3961;42.058;25.586;2022-10-15T09:37:01;4.87;;;2.70;;
7831;SDS011;3961;42.058;25.586;2022-10-15T09:39:53;3.97;;;2.60;;
7831;SDS011;3961;42.058;25.586;2022-10-15T09:42:41;4.63;;;2.60;;
7831;SDS011;3961;42.058;25.586;2022-10-15T09:45:10;6.80;;;2.93;;
7831;SDS011;3961;42.058;25.586;2022-10-15T09:47:40;5.83;;;3.10;;
7831;SDS011;3961;42.058;25.586;2022-10-15T09:50:09;15.07;;;3.60;;
7831;SDS011;3961;42.058;25.586;2022-10-15T09:52:45;4.67;;;2.70;;
7831;SDS011;3961;42.058;25.586;2022-10-15T09:55:30;4.33;;;2.67;;
7831;SDS011;3961;42.058;25.586;2022-10-15T09:58:17;4.73;;;2.80;;
7831;SDS011;3961;42.058;25.586;2022-10-15T10:00:51;4.57;;;2.90;;
7831;SDS011;3961;42.058;25.586;2022-10-15T10:03:28;6.10;;;3.10;;
7831;SDS011;3961;42.058;25.586;2022-10-15T10:06:02;6.17;;;2.70;;
7831;SDS011;3961;42.058;25.586;2022-10-15T10:08:34;7.83;;;3.63;;
7831;SDS011;3961;42.058;25.586;2022-10-15T10:11:04;6.13;;;3.60;;
7831;SDS011;3961;42.058;25.586;2022-10-15T10:16:15;5.73;;;3.13;;
7831;SDS011;3961;42.058;25.586;2022-10-15T10:18:42;24.17;;;4.40;;
7831;SDS011;3961;42.058;25.586;2022-10-15T10:21:31;9.97;;;3.30;;
7831;SDS011;3961;42.058;25.586;2022-10-15T10:26:48;4.77;;;3.07;;
7831;SDS011;3961;42.058;25.586;2022-10-15T10:29:17;9.10;;;3.10;;
7831;SDS011;3961;42.058;25.586;2022-10-15T10:31:44;5.27;;;3.83;;
7831;SDS011;3961;42.058;25.586;2022-10-15T10:34:16;6.70;;;3.80;;
7831;SDS011;3961;42.058;25.586;2022-10-15T10:36:51;5.70;;;3.70;;
7831;SDS011;3961;42.058;25.586;2022-10-15T10:41:57;13.70;;;4.67;;
7831;SDS011;3961;42.058;25.586;2022-10-15T10:44:30;6.07;;;3.30;;
7831;SDS011;3961;42.058;25.586;2022-10-15T10:49:32;9.23;;;3.27;;
7831;SDS011;3961;42.058;25.586;2022-10-15T10:51:59;10.17;;;3.30;;
7831;SDS011;3961;42.058;25.586;2022-10-15T10:54:25;4.40;;;2.60;;
7831;SDS011;3961;42.058;25.586;2022-10-15T10:56:52;5.13;;;3.67;;
7831;SDS011;3961;42.058;25.586;2022-10-15T10:59:22;7.10;;;3.77;;
7831;SDS011;3961;42.058;25.586;2022-10-15T11:01:55;8.97;;;3.40;;
7831;SDS011;3961;42.058;25.586;2022-10-15T11:04:25;6.13;;;3.40;;
7831;SDS011;3961;42.058;25.586;2022-10-15T11:52:59;8.50;;;2.90;;
7831;SDS011;3961;42.058;25.586;2022-10-15T11:58:27;6.27;;;2.87;;
7831;SDS011;3961;42.058;25.586;2022-10-15T12:03:54;7.37;;;3.30;;
7831;SDS011;3961;42.058;25.586;2022-10-15T12:06:23;8.87;;;3.10;;
7831;SDS011;3961;42.058;25.586;2022-10-15T12:08:52;6.73;;;2.60;;
7831;SDS011;3961;42.058;25.586;2022-10-15T12:14:17;7.03;;;3.10;;
7831;SDS011;3961;42.058;25.586;2022-10-15T12:17:02;5.20;;;2.60;;
7831;SDS011;3961;42.058;25.586;2022-10-15T12:22:36;6.97;;;3.53;;
7831;SDS011;3961;42.058;25.586;2022-10-15T12:25:03;11.77;;;3.03;;
7831;SDS011;3961;42.058;25.586;2022-10-15T12:27:33;7.90;;;3.50;;
7831;SDS011;3961;42.058;25.586;2022-10-15T12:32:27;8.97;;;3.40;;
7831;SDS011;3961;42.058;25.586;2022-10-15T12:37:38;13.23;;;3.50;;
7831;SDS011;3961;42.058;25.586;2022-10-15T12:40:27;8.17;;;3.30;;
7831;SDS011;3961;42.058;25.586;2022-10-15T12:43:16;9.67;;;3.13;;
7831;SDS011;3961;42.058;25.586;2022-10-15T12:45:49;6.90;;;2.97;;
7831;SDS011;3961;42.058;25.586;2022-10-15T12:50:40;9.20;;;3.17;;
7831;SDS011;3961;42.058;25.586;2022-10-15T12:58:40;8.67;;;3.10;;
7831;SDS011;3961;42.058;25.586;2022-10-15T13:08:45;7.80;;;2.73;;
7831;SDS011;3961;42.058;25.586;2022-10-15T13:11:18;9.17;;;3.53;;
7831;SDS011;3961;42.058;25.586;2022-10-15T13:16:42;5.67;;;2.80;;
7831;SDS011;3961;42.058;25.586;2022-10-15T13:22:20;5.40;;;2.70;;
7831;SDS011;3961;42.058;25.586;2022-10-15T13:24:47;5.40;;;2.73;;
7831;SDS011;3961;42.058;25.586;2022-10-15T13:27:14;4.70;;;2.40;;
7831;SDS011;3961;42.058;25.586;2022-10-15T13:29:51;6.23;;;2.60;;
7831;SDS011;3961;42.058;25.586;2022-10-15T13:32:17;13.33;;;3.03;;
7831;SDS011;3961;42.058;25.586;2022-10-15T13:34:44;15.73;;;3.20;;
7831;SDS011;3961;42.058;25.586;2022-10-15T13:37:12;8.70;;;2.80;;
7831;SDS011;3961;42.058;25.586;2022-10-15T13:39:43;7.17;;;2.70;;
7831;SDS011;3961;42.058;25.586;2022-10-15T13:44:42;6.47;;;2.80;;
7831;SDS011;3961;42.058;25.586;2022-10-15T13:47:22;14.33;;;2.90;;
7831;SDS011;3961;42.058;25.586;2022-10-15T13:49:50;9.70;;;2.73;;
7831;SDS011;3961;42.058;25.586;2022-10-15T13:52:16;7.20;;;2.53;;
7831;SDS011;3961;42.058;25.586;2022-10-15T13:54:45;4.90;;;2.57;;
7831;SDS011;3961;42.058;25.586;2022-10-15T13:57:13;5.47;;;2.60;;
7831;SDS011;3961;42.058;25.586;2022-10-15T13:59:42;5.87;;;2.87;;
7831;SDS011;3961;42.058;25.586;2022-10-15T14:02:10;4.80;;;3.17;;
7831;SDS011;3961;42.058;25.586;2022-10-15T14:04:36;6.77;;;3.37;;
7831;SDS011;3961;42.058;25.586;2022-10-15T14:07:23;9.87;;;3.30;;
7831;SDS011;3961;42.058;25.586;2022-10-15T14:09:50;7.83;;;3.20;;
7831;SDS011;3961;42.058;25.586;2022-10-15T14:12:17;9.47;;;3.00;;
7831;SDS011;3961;42.058;25.586;2022-10-15T14:14:43;6.00;;;3.20;;
7831;SDS011;3961;42.058;25.586;2022-10-15T14:17:12;6.70;;;3.13;;
7831;SDS011;3961;42.058;25.586;2022-10-15T14:19:50;8.50;;;3.70;;
7831;SDS011;3961;42.058;25.586;2022-10-15T14:22:20;8.17;;;3.37;;
7831;SDS011;3961;42.058;25.586;2022-10-15T14:24:49;7.80;;;3.10;;
7831;SDS011;3961;42.058;25.586;2022-10-15T14:27:20;7.17;;;2.90;;
7831;SDS011;3961;42.058;25.586;2022-10-15T14:29:51;5.57;;;2.90;;
7831;SDS011;3961;42.058;25.586;2022-10-15T14:32:20;13.33;;;3.43;;
7831;SDS011;3961;42.058;25.586;2022-10-15T14:34:48;14.17;;;3.37;;
7831;SDS011;3961;42.058;25.586;2022-10-15T14:37:28;11.37;;;3.03;;
7831;SDS011;3961;42.058;25.586;2022-10-15T14:45:25;8.10;;;2.90;;
7831;SDS011;3961;42.058;25.586;2022-10-15T14:47:53;22.37;;;3.97;;
7831;SDS011;3961;42.058;25.586;2022-10-15T14:50:25;8.67;;;3.43;;
7831;SDS011;3961;42.058;25.586;2022-10-15T14:52:54;4.50;;;3.17;;
7831;SDS011;3961;42.058;25.586;2022-10-15T14:57:52;5.23;;;2.97;;
7831;SDS011;3961;42.058;25.586;2022-10-15T15:00:21;7.30;;;2.83;;
7831;SDS011;3961;42.058;25.586;2022-10-15T15:02:50;8.63;;;3.30;;
7831;SDS011;3961;42.058;25.586;2022-10-15T15:05:18;3.40;;;2.30;;
7831;SDS011;3961;42.058;25.586;2022-10-15T15:07:46;8.63;;;2.63;;
7831;SDS011;3961;42.058;25.586;2022-10-15T15:10:14;6.00;;;3.13;;
7831;SDS011;3961;42.058;25.586;2022-10-15T15:12:41;4.50;;;2.50;;
7831;SDS011;3961;42.058;25.586;2022-10-15T15:15:17;7.30;;;2.80;;
7831;SDS011;3961;42.058;25.586;2022-10-15T15:17:44;14.50;;;2.80;;
7831;SDS011;3961;42.058;25.586;2022-10-15T15:20:10;10.60;;;2.83;;
7831;SDS011;3961;42.058;25.586;2022-10-15T15:22:36;5.83;;;2.70;;
7831;SDS011;3961;42.058;25.586;2022-10-15T15:25:14;4.97;;;2.60;;
7831;SDS011;3961;42.058;25.586;2022-10-15T15:27:42;9.57;;;2.80;;
7831;SDS011;3961;42.058;25.586;2022-10-15T15:30:22;3.93;;;2.53;;
7831;SDS011;3961;42.058;25.586;2022-10-15T15:32:49;6.40;;;2.63;;
7831;SDS011;3961;42.058;25.586;2022-10-15T15:37:53;5.20;;;2.80;;
7831;SDS011;3961;42.058;25.586;2022-10-15T15:40:19;8.80;;;2.87;;
7831;SDS011;3961;42.058;25.586;2022-10-15T15:42:44;7.50;;;2.93;;
7831;SDS011;3961;42.058;25.586;2022-10-15T15:45:31;9.73;;;2.77;;
7831;SDS011;3961;42.058;25.586;2022-10-15T15:47:56;4.77;;;2.53;;
7831;SDS011;3961;42.058;25.586;2022-10-15T15:50:23;5.40;;;2.63;;
7831;SDS011;3961;42.058;25.586;2022-10-15T15:52:48;9.47;;;2.60;;
7831;SDS011;3961;42.058;25.586;2022-10-15T15:55:14;6.70;;;2.40;;
7831;SDS011;3961;42.058;25.586;2022-10-15T15:57:40;7.27;;;2.77;;
7831;SDS011;3961;42.058;25.586;2022-10-15T16:00:06;4.33;;;2.43;;
7831;SDS011;3961;42.058;25.586;2022-10-15T16:02:33;4.73;;;2.70;;
7831;SDS011;3961;42.058;25.586;2022-10-15T16:04:59;7.70;;;2.83;;
7831;SDS011;3961;42.058;25.586;2022-10-15T16:07:26;7.40;;;2.90;;
7831;SDS011;3961;42.058;25.586;2022-10-15T16:09:52;5.70;;;2.73;;
7831;SDS011;3961;42.058;25.586;2022-10-15T16:12:17;4.20;;;2.70;;
7831;SDS011;3961;42.058;25.586;2022-10-15T16:14:43;6.67;;;2.90;;
7831;SDS011;3961;42.058;25.586;2022-10-15T16:17:08;4.73;;;2.63;;
7831;SDS011;3961;42.058;25.586;2022-10-15T16:19:34;5.27;;;2.60;;
7831;SDS011;3961;42.058;25.586;2022-10-15T16:21:59;5.17;;;3.00;;
7831;SDS011;3961;42.058;25.586;2022-10-15T16:24:25;6.70;;;3.00;;
7831;SDS011;3961;42.058;25.586;2022-10-15T16:26:51;7.27;;;3.30;;
7831;SDS011;3961;42.058;25.586;2022-10-15T16:29:16;5.30;;;3.03;;
7831;SDS011;3961;42.058;25.586;2022-10-15T16:31:42;9.43;;;2.93;;
7831;SDS011;3961;42.058;25.586;2022-10-15T16:34:07;6.87;;;3.13;;
7831;SDS011;3961;42.058;25.586;2022-10-15T16:36:33;9.27;;;3.30;;
7831;SDS011;3961;42.058;25.586;2022-10-15T16:39:00;5.67;;;3.27;;
7831;SDS011;3961;42.058;25.586;2022-10-15T16:41:26;7.10;;;3.37;;
7831;SDS011;3961;42.058;25.586;2022-10-15T16:43:51;8.00;;;3.13;;
7831;SDS011;3961;42.058;25.586;2022-10-15T16:46:17;5.70;;;3.17;;
7831;SDS011;3961;42.058;25.586;2022-10-15T16:48:43;6.43;;;2.90;;
7831;SDS011;3961;42.058;25.586;2022-10-15T16:51:11;6.90;;;3.43;;
7831;SDS011;3961;42.058;25.586;2022-10-15T16:53:39;5.93;;;3.20;;
7831;SDS011;3961;42.058;25.586;2022-10-15T16:56:07;8.90;;;2.93;;
7831;SDS011;3961;42.058;25.586;2022-10-15T16:58:38;6.90;;;3.00;;
7831;SDS011;3961;42.058;25.586;2022-10-15T17:01:05;6.83;;;3.20;;
7831;SDS011;3961;42.058;25.586;2022-10-15T17:03:33;5.40;;;3.37;;
7831;SDS011;3961;42.058;25.586;2022-10-15T17:06:02;9.13;;;3.63;;
7831;SDS011;3961;42.058;25.586;2022-10-15T17:08:34;5.27;;;3.63;;
7831;SDS011;3961;42.058;25.586;2022-10-15T17:11:03;8.87;;;3.60;;
7831;SDS011;3961;42.058;25.586;2022-10-15T17:13:29;6.20;;;3.60;;
7831;SDS011;3961;42.058;25.586;2022-10-15T17:15:55;7.07;;;3.37;;
7831;SDS011;3961;42.058;25.586;2022-10-15T17:18:30;6.70;;;3.40;;
7831;SDS011;3961;42.058;25.586;2022-10-15T17:20:56;6.50;;;3.83;;
7831;SDS011;3961;42.058;25.586;2022-10-15T17:23:22;6.70;;;3.57;;